Riyadh/Khaled, Saudi Arabia
Current Conditions -  °F | °C
As of 8:00 PM on Sunday 23 Nov 2014 (Local Time) from OERK Reporting Station
Scattered Clouds Scattered Clouds  
Wind Chill: 64°   Ceiling: Unl
Heat Index: 64°   Visibility: 6mi
Dew Point: 59°   Wind: 6mph
Humidity: 83%   Direction: 30°NNE
Pressure: 30"   Gusts: NA
Location:  24.93°N, 46.72°E
Report Text: OERK 231700Z 03005KT 9999 FEW040CB SCT040 18/15 Q1016 NOSIG
Loading
Personal Weather Stations






























Interactive Weather Map New forecast layout! Learn more

10-Day Weather Forecast

Advertisements
Track Severe Weather on mobile